createdAt,value
2023-01-18T00:03:13.488Z,88.12
2023-01-18T00:08:13.511Z,88.54
2023-01-18T00:13:14.417Z,88.16
2023-01-18T00:18:13.350Z,88.16
2023-01-18T00:23:13.295Z,88.16
2023-01-18T00:28:13.261Z,88.79
2023-01-18T00:33:13.156Z,88.37
2023-01-18T00:38:13.117Z,88.16
2023-01-18T00:43:13.108Z,88.16
2023-01-18T00:48:13.234Z,88.37
2023-01-18T00:53:13.089Z,88.16
2023-01-18T00:58:12.960Z,88.26
2023-01-18T01:03:12.854Z,87.84
2023-01-18T01:08:12.837Z,87.99
2023-01-18T01:13:12.696Z,88.41
2023-01-18T01:18:12.724Z,88.09
2023-01-18T01:23:12.642Z,87.88
2023-01-18T01:28:12.513Z,88.41
2023-01-18T01:33:12.615Z,87.99
2023-01-18T01:38:13.561Z,87.71
2023-01-18T01:43:12.523Z,88.13
2023-01-18T01:48:12.334Z,87.92
2023-01-18T01:53:12.281Z,88.02
2023-01-18T01:58:12.242Z,87.82
2023-01-18T02:03:12.349Z,87.92
2023-01-18T02:08:12.084Z,88.13
2023-01-18T02:13:12.043Z,87.71
2023-01-18T02:18:12.086Z,87.85
2023-01-18T02:23:11.928Z,87.85
2023-01-18T02:28:11.898Z,88.28
2023-01-18T02:33:11.829Z,88.45
2023-01-18T02:38:11.807Z,87.82
2023-01-18T02:43:11.714Z,87.65
2023-01-18T02:48:11.634Z,87.85
2023-01-18T02:53:11.656Z,87.65
2023-01-18T02:58:11.566Z,87.54
2023-01-18T03:03:11.660Z,87.85
2023-01-18T03:08:11.462Z,88.07
2023-01-18T03:13:12.538Z,88.07
2023-01-18T03:18:11.371Z,87.85
2023-01-18T03:23:11.307Z,88.17
2023-01-18T03:28:11.265Z,87.65
2023-01-18T03:33:11.187Z,87.54
2023-01-18T03:38:11.157Z,87.65
2023-01-18T03:43:11.081Z,87.44
2023-01-18T03:48:11.104Z,87.33
2023-01-18T03:53:11.131Z,87.75
2023-01-18T03:58:10.975Z,87.23
2023-01-18T04:03:10.931Z,87.75
2023-01-18T04:08:10.830Z,87.75
2023-01-18T04:13:10.803Z,87.27
2023-01-18T04:18:10.752Z,87.48
2023-01-18T04:23:10.726Z,87.27
2023-01-18T04:28:19.519Z,87.37
2023-01-18T04:33:10.640Z,87.27
2023-01-18T04:38:10.516Z,87.27
2023-01-18T04:43:10.430Z,87.48
2023-01-18T04:48:10.400Z,87.79
2023-01-18T04:53:10.358Z,87.48
2023-01-18T04:58:10.270Z,87.27
2023-01-18T05:03:10.258Z,87.58
2023-01-18T05:08:10.196Z,87.10
2023-01-18T05:13:10.116Z,87.30
2023-01-18T05:18:10.256Z,87.52
2023-01-18T05:23:10.192Z,87.20
2023-01-18T05:28:09.981Z,87.30
2023-01-18T05:33:10.083Z,87.73
2023-01-18T05:38:09.882Z,87.62
2023-01-18T05:43:09.804Z,87.27
2023-01-18T05:48:09.757Z,87.10
2023-01-18T05:53:09.729Z,86.99
2023-01-18T05:58:09.677Z,87.20
2023-01-18T06:03:10.835Z,86.78
2023-01-18T06:08:09.662Z,88.25
2023-01-18T06:13:09.589Z,87.62
2023-01-18T06:18:09.443Z,87.73
2023-01-18T06:23:09.411Z,87.79
2023-01-18T06:28:09.351Z,87.62
2023-01-18T06:33:09.442Z,87.90
2023-01-18T06:38:09.385Z,87.58
2023-01-18T06:44:33.475Z,87.30
2023-01-18T06:49:20.612Z,87.16
2023-01-18T06:54:20.423Z,87.37
2023-01-18T06:59:20.355Z,87.37
2023-01-18T07:04:20.358Z,86.95
2023-01-18T07:09:20.357Z,86.68
2023-01-18T07:14:20.195Z,87.20
2023-01-18T07:19:20.210Z,86.99
2023-01-18T07:24:20.202Z,86.57
2023-01-18T07:29:20.131Z,87.30
2023-01-18T07:34:20.087Z,86.57
2023-01-18T07:39:20.016Z,87.10
2023-01-18T07:44:19.905Z,87.20
2023-01-18T07:49:19.824Z,86.88
2023-01-18T07:54:19.841Z,87.20
2023-01-18T07:59:19.713Z,87.30
2023-01-18T08:04:19.688Z,87.54
2023-01-18T08:09:19.591Z,87.33
2023-01-18T08:14:19.539Z,87.44
2023-01-18T08:19:19.497Z,86.70
2023-01-18T08:24:19.433Z,87.65
2023-01-18T08:29:19.382Z,87.71
2023-01-18T08:34:19.331Z,87.71
2023-01-18T08:39:19.316Z,88.24
2023-01-18T08:44:19.232Z,88.82
2023-01-18T08:49:19.206Z,88.51
2023-01-18T08:54:19.133Z,89.27
2023-01-18T08:59:19.195Z,89.00
2023-01-18T09:04:19.069Z,88.75
2023-01-18T09:09:18.980Z,88.81
2023-01-18T09:14:18.941Z,88.60
2023-01-18T09:19:18.901Z,88.46
2023-01-18T09:24:18.841Z,88.35
2023-01-18T09:29:18.775Z,87.99
2023-01-18T09:34:20.100Z,88.21
2023-01-18T09:39:18.679Z,87.79
2023-01-18T09:44:18.657Z,88.37
2023-01-18T09:49:18.565Z,88.23
2023-01-18T09:54:18.533Z,87.77
2023-01-18T09:59:18.436Z,88.29
2023-01-18T10:04:18.423Z,88.57
2023-01-18T10:09:18.332Z,89.58
2023-01-18T10:14:18.319Z,88.90
2023-01-18T10:19:18.258Z,89.07
2023-01-18T10:24:18.190Z,88.51
2023-01-18T10:29:18.146Z,87.93
2023-01-18T10:34:18.099Z,88.20
2023-01-18T10:39:18.081Z,88.09
2023-01-18T10:44:17.977Z,87.74
2023-01-18T10:49:17.911Z,87.12
2023-01-18T10:54:17.871Z,87.22
2023-01-18T10:59:17.891Z,87.22
2023-01-18T11:04:17.748Z,86.87
2023-01-18T11:09:17.708Z,86.51
2023-01-18T11:14:17.645Z,86.30
2023-01-18T11:19:17.587Z,86.27
2023-01-18T11:24:17.584Z,85.96
2023-01-18T11:29:17.495Z,86.41
2023-01-18T11:34:17.468Z,86.72
2023-01-18T11:39:17.407Z,85.85
2023-01-18T11:44:17.321Z,86.16
2023-01-18T11:49:17.295Z,85.29
2023-01-18T11:54:17.265Z,84.87
2023-01-18T11:59:17.206Z,84.21
2023-01-18T12:04:17.105Z,84.00
2023-01-18T12:09:17.068Z,84.17
2023-01-18T12:14:17.019Z,83.23
2023-01-18T12:19:16.981Z,83.86
2023-01-18T12:24:16.905Z,82.30
2023-01-18T12:29:16.880Z,82.40
2023-01-18T12:34:16.807Z,81.67
2023-01-18T12:39:16.775Z,80.94
2023-01-18T12:44:16.693Z,81.36
2023-01-18T12:49:16.644Z,81.26
2023-01-18T12:54:16.620Z,80.63
2023-01-18T12:59:16.563Z,80.74
2023-01-18T13:04:16.475Z,80.46
2023-01-18T13:09:16.447Z,80.22
2023-01-18T13:14:16.388Z,79.91
2023-01-18T13:19:16.346Z,79.76
2023-01-18T13:24:16.288Z,79.35
2023-01-18T13:29:16.256Z,79.35
2023-01-18T13:34:16.164Z,79.03
2023-01-18T13:39:16.118Z,80.22
2023-01-18T13:44:16.090Z,78.93
2023-01-18T13:49:35.460Z,79.14
2023-01-18T13:54:16.954Z,80.32
2023-01-18T13:59:15.870Z,80.01
2023-01-18T14:04:15.848Z,79.76
2023-01-18T14:09:15.782Z,79.97
2023-01-18T14:14:15.755Z,80.39
2023-01-18T14:19:15.672Z,79.24
2023-01-18T14:24:15.610Z,79.31
2023-01-18T14:29:15.555Z,78.58
2023-01-18T14:34:15.505Z,79.55
2023-01-18T14:39:15.458Z,79.97
2023-01-18T14:44:15.434Z,79.97
2023-01-18T14:49:15.357Z,80.08
2023-01-18T14:54:15.320Z,79.35
2023-01-18T14:59:15.279Z,79.76
2023-01-18T15:04:15.204Z,79.35
2023-01-18T15:09:15.174Z,79.55
2023-01-18T15:14:15.074Z,79.55
2023-01-18T15:19:15.033Z,79.45
2023-01-18T15:24:19.830Z,79.28
2023-01-18T15:29:14.937Z,79.59
2023-01-18T15:34:14.907Z,0.00
2023-01-18T15:39:14.826Z,0.00
2023-01-18T15:44:14.758Z,0.00
2023-01-18T15:49:14.708Z,0.00
2023-01-18T15:54:14.675Z,0.00
2023-01-18T15:59:14.617Z,0.00
2023-01-18T16:04:14.583Z,0.00
2023-01-18T16:09:14.493Z,0.00
2023-01-18T16:14:14.474Z,0.00
2023-01-18T16:19:14.397Z,0.00
2023-01-18T16:24:14.367Z,0.00
2023-01-18T16:29:14.300Z,0.00
2023-01-18T16:34:14.237Z,0.00
2023-01-18T16:39:14.178Z,0.00
2023-01-18T16:44:14.141Z,0.00
2023-01-18T16:49:14.034Z,0.00
2023-01-18T16:54:14.020Z,0.00
2023-01-18T16:59:13.977Z,0.00
2023-01-18T17:04:13.910Z,0.00
2023-01-18T17:09:13.893Z,0.00
2023-01-18T17:14:13.848Z,0.00
2023-01-18T17:19:13.781Z,0.00
2023-01-18T17:24:13.739Z,0.00
2023-01-18T17:29:13.621Z,0.00
2023-01-18T17:34:13.627Z,0.00
2023-01-18T17:39:13.566Z,0.00
2023-01-18T17:44:13.501Z,0.00
2023-01-18T17:49:13.491Z,0.00
2023-01-18T17:54:20.565Z,0.00
2023-01-18T18:01:01.942Z,78.80
2023-01-18T18:05:25.667Z,79.22
2023-01-18T18:10:25.515Z,80.09
2023-01-18T18:15:25.533Z,80.40
2023-01-18T18:20:25.473Z,80.71
2023-01-18T18:25:25.426Z,80.85
2023-01-18T18:30:25.350Z,81.06
2023-01-18T18:35:26.432Z,81.59
2023-01-18T18:40:25.258Z,82.10
2023-01-18T18:45:25.174Z,82.63
2023-01-18T18:50:25.234Z,81.90
2023-01-18T18:55:25.127Z,81.06
2023-01-18T19:00:25.058Z,81.27
2023-01-18T19:05:25.005Z,81.41
2023-01-18T19:10:25.193Z,81.79
2023-01-18T19:15:24.866Z,81.73
2023-01-18T19:20:24.823Z,83.23
2023-01-18T19:25:24.775Z,82.46
2023-01-18T19:30:24.718Z,82.39
2023-01-18T19:35:25.655Z,83.23
2023-01-18T19:40:24.614Z,82.46
2023-01-18T19:45:28.386Z,82.04
2023-01-18T19:50:24.546Z,81.93
2023-01-18T19:55:24.489Z,82.60
2023-01-18T20:00:24.385Z,82.87
2023-01-18T20:05:24.347Z,83.12
2023-01-18T20:10:24.247Z,82.77
2023-01-18T20:15:24.241Z,82.46
2023-01-18T20:20:33.128Z,82.04
2023-01-18T20:25:24.125Z,82.67
2023-01-18T20:30:24.078Z,82.04
2023-01-18T20:35:24.084Z,82.84
2023-01-18T20:40:24.272Z,82.53
2023-01-18T20:45:24.042Z,82.21
2023-01-18T20:50:23.851Z,82.94
2023-01-18T20:55:23.794Z,82.28
2023-01-18T21:00:23.748Z,82.07
2023-01-18T21:05:23.690Z,82.45
2023-01-18T21:10:23.668Z,82.76
2023-01-18T21:15:23.589Z,83.39
2023-01-18T21:20:23.566Z,82.65
2023-01-18T21:25:23.596Z,82.97
2023-01-18T21:30:23.500Z,82.87
2023-01-18T21:35:23.430Z,83.59
2023-01-18T21:40:23.395Z,83.49
2023-01-18T21:45:23.262Z,83.66
2023-01-18T21:50:23.284Z,83.39
2023-01-18T21:55:24.183Z,84.01
2023-01-18T22:00:23.120Z,84.08
2023-01-18T22:05:23.042Z,84.50
2023-01-18T22:10:22.962Z,83.97
2023-01-18T22:15:22.920Z,84.81
2023-01-18T22:20:22.901Z,84.50
2023-01-18T22:25:22.831Z,84.60
2023-01-18T22:30:22.759Z,84.60
2023-01-18T22:35:22.730Z,84.74
2023-01-18T22:40:26.072Z,85.33
2023-01-18T22:45:22.630Z,84.81
2023-01-18T22:50:22.691Z,85.02
2023-01-18T22:55:22.449Z,84.91
2023-01-18T23:00:22.464Z,84.50
2023-01-18T23:05:22.411Z,85.02
2023-01-18T23:10:22.311Z,85.12
2023-01-18T23:15:22.388Z,85.33
2023-01-18T23:20:22.240Z,85.60
2023-01-18T23:25:22.369Z,85.71
2023-01-18T23:30:22.228Z,85.08
2023-01-18T23:35:22.058Z,85.19
2023-01-18T23:40:22.057Z,85.60
2023-01-18T23:45:22.027Z,86.02
2023-01-18T23:50:21.894Z,85.39
2023-01-18T23:55:21.843Z,85.46
